Aérodrome :
LOGIN :

S'inscrire | Disclaimer

   EN    FR    IT 

 










Légende :    VFR   VFR Marginal   IFR   IFR Intensif   IFR Très Intensif
Visi : 
Plafond : 
>= 8 km
>= 3000ft
5 à 8 km
1000 à 3000 ft
1500m à 5 km
500 à 1000 ft
800 à 1500m
200 à 500 ft
< 800m
< 200 ft
Symboles :   Orages  Brouillard  Fortes neiges  Fortes précipitations  Vent > 20 kt
SIGMETs :   Divers  Orages  Givrage  Turbulence  Onde Orograph.  Cendres Volcan.






- Altitude de l'aérodrome : 1411 ft
- Code IATA : SZG


LOWS - Salzburg

DERNIER METAR :
  • 280520Z 16009KT 9999 FEW050 SCT070 BKN100 11/05 Q1027 NOSIG

METARs EXPIRÉS :
  • 280450Z 15009KT 9999 FEW070 BKN100 11/05 Q1028 NOSIG
  • 280420Z 16009KT 9999 FEW070 BKN100 11/05 Q1028 NOSIG
  • 280350Z AUTO 16010KT 9999 SCT060 BKN100 11/05 Q1028
  • 280320Z AUTO 15009KT 9999 FEW060 SCT070 BKN090 10/05 Q1028
  • 280250Z AUTO 16009KT 9999 SCT060 BKN100 10/05 Q1028

TAF TAF LOWS
Valide du 28 à 06h jusqu'au 29 à 06h UTC


280515Z 2806/2906 15008KT 9999 FEW050 BKN070 TX14/2814Z TN07/2903Z
BECMG 2806/2808 30007KT
TEMPO 2806/2820 -SHRA
PROB40
TEMPO 2806/2815 SHRA FEW040TCU BKN050
TEMPO 2820/2906 -RA BKN020



MET'MAP, la Météo Aéronautique d'un coup d'oeil ! - Copyright ORBIFLY Décembre 2007 - Disclaimer

ORBIFLY MET'MAP TEAM :

Programmation & Développement : Alexandra Zaïnal
Sur une idée originale de : Baudouin d'Aumeries
Assistance à la programmation : Marc-Olivier Méhu
Soutien technique & logistique : Manuel Goepfert

Contact : metmap@orbifly.com




SOURCES & CREDITS :

   NOAA